createdAt,value
2023-03-24T00:01:58.987Z,17.57
2023-03-24T00:04:25.690Z,15.60
2023-03-24T00:06:52.343Z,16.95
2023-03-24T00:09:19.052Z,18.67
2023-03-24T00:11:45.680Z,16.75
2023-03-24T00:14:13.388Z,14.63
2023-03-24T00:16:41.429Z,18.63
2023-03-24T00:19:12.390Z,18.80
2023-03-24T00:21:39.625Z,18.02
2023-03-24T00:24:06.805Z,14.85
2023-03-24T00:26:34.661Z,16.00
2023-03-24T00:29:01.156Z,19.58
2023-03-24T00:31:27.825Z,18.35
2023-03-24T00:33:54.458Z,16.73
2023-03-24T00:36:23.362Z,18.17
2023-03-24T00:38:50.358Z,18.63
2023-03-24T00:41:17.216Z,18.63
2023-03-24T00:43:43.871Z,17.00
2023-03-24T00:46:12.547Z,18.00
2023-03-24T00:48:39.060Z,15.02
2023-03-24T00:51:06.564Z,17.83
2023-03-24T00:53:33.009Z,19.98
2023-03-24T00:55:59.569Z,18.15
2023-03-24T00:58:26.226Z,16.95
2023-03-24T01:00:55.476Z,15.90
2023-03-24T01:03:23.849Z,21.80
2023-03-24T01:05:50.511Z,21.75
2023-03-24T01:08:18.535Z,17.83
2023-03-24T01:10:45.176Z,20.60
2023-03-24T01:13:12.233Z,19.80
2023-03-24T01:15:39.101Z,24.93
2023-03-24T01:18:05.848Z,26.42
2023-03-24T01:20:32.777Z,31.73
2023-03-24T01:23:01.408Z,23.58
2023-03-24T01:25:27.886Z,23.02
2023-03-24T01:27:54.366Z,21.23
2023-03-24T01:30:24.290Z,20.40
2023-03-24T01:32:52.310Z,24.05
2023-03-24T01:35:20.604Z,23.60
2023-03-24T01:37:47.529Z,24.98
2023-03-24T01:40:19.355Z,26.17
2023-03-24T01:42:46.109Z,25.27
2023-03-24T01:45:40.544Z,21.80
2023-03-24T01:48:11.998Z,24.42
2023-03-24T01:50:40.066Z,28.92
2023-03-24T01:53:07.610Z,20.17
2023-03-24T01:55:34.426Z,26.45
2023-03-24T01:58:02.862Z,25.60
2023-03-24T02:00:30.138Z,20.52
2023-03-24T02:03:01.078Z,27.25
2023-03-24T02:05:33.625Z,27.10
2023-03-24T02:08:10.723Z,26.70
2023-03-24T02:10:38.559Z,28.42
2023-03-24T02:13:06.498Z,30.30
2023-03-24T02:15:38.927Z,28.10
2023-03-24T02:18:29.332Z,27.33
2023-03-24T02:21:18.494Z,24.70
2023-03-24T02:24:05.006Z,25.00
2023-03-24T02:26:52.790Z,31.80
2023-03-24T02:29:52.918Z,30.55
2023-03-24T02:32:42.862Z,37.13
2023-03-24T02:35:42.342Z,32.35
2023-03-24T02:38:40.634Z,32.03
2023-03-24T02:41:23.454Z,33.90
2023-03-24T02:44:22.171Z,27.48
2023-03-24T02:46:56.006Z,33.37
2023-03-24T02:49:54.048Z,30.45
2023-03-24T02:52:26.743Z,32.38
2023-03-24T02:55:00.331Z,31.45
2023-03-24T02:57:35.656Z,29.15
2023-03-24T03:00:34.074Z,33.37
2023-03-24T03:03:09.581Z,31.40
2023-03-24T03:05:42.025Z,29.90
2023-03-24T03:08:12.432Z,30.58
2023-03-24T03:10:43.665Z,33.47
2023-03-24T03:13:23.260Z,31.90
2023-03-24T03:15:55.052Z,31.20
2023-03-24T03:18:39.603Z,37.90
2023-03-24T03:21:15.136Z,30.63
2023-03-24T03:23:59.633Z,35.42
2023-03-24T03:26:28.026Z,35.43
2023-03-24T03:28:58.661Z,29.77
2023-03-24T03:31:42.629Z,34.67
2023-03-24T03:34:24.451Z,36.67
2023-03-24T03:36:58.268Z,34.42
2023-03-24T03:39:30.742Z,33.83
2023-03-24T03:41:57.562Z,30.85
2023-03-24T03:44:24.486Z,34.72
2023-03-24T03:46:51.186Z,32.65
2023-03-24T03:49:17.754Z,33.10
2023-03-24T03:51:44.412Z,30.27
2023-03-24T03:54:13.903Z,33.25
2023-03-24T03:56:42.183Z,39.47
2023-03-24T03:59:22.623Z,39.65
2023-03-24T04:01:49.515Z,46.67
2023-03-24T04:04:35.637Z,35.67
2023-03-24T04:07:15.026Z,30.17
2023-03-24T04:10:07.795Z,32.90
2023-03-24T04:12:56.784Z,30.35
2023-03-24T04:16:00.105Z,38.78
2023-03-24T04:18:32.174Z,28.93
2023-03-24T04:21:33.188Z,40.38
2023-03-24T04:24:09.844Z,37.33
2023-03-24T04:27:07.415Z,35.55
2023-03-24T04:30:09.258Z,34.10
2023-03-24T04:32:55.006Z,34.03
2023-03-24T04:35:27.701Z,20.25
2023-03-24T04:37:55.436Z,30.70
2023-03-24T04:40:23.616Z,37.00
2023-03-24T04:42:56.888Z,34.70
2023-03-24T04:45:24.228Z,37.60
2023-03-24T04:47:55.833Z,33.47
2023-03-24T04:50:54.451Z,39.00
2023-03-24T04:53:21.123Z,35.90
2023-03-24T04:55:50.474Z,30.15
2023-03-24T04:58:18.281Z,35.23
2023-03-24T05:00:45.991Z,36.22
2023-03-24T05:03:14.630Z,34.97
2023-03-24T05:05:43.077Z,36.63
2023-03-24T05:08:10.224Z,36.08
2023-03-24T05:10:37.410Z,33.90
2023-03-24T05:13:05.773Z,34.92
2023-03-24T05:15:32.595Z,37.53
2023-03-24T05:17:59.350Z,38.50
2023-03-24T05:20:27.219Z,27.67
2023-03-24T05:22:53.778Z,29.10
2023-03-24T05:25:20.455Z,35.45
2023-03-24T05:27:47.644Z,34.28
2023-03-24T05:30:15.065Z,34.08
2023-03-24T05:32:41.937Z,33.38
2023-03-24T05:35:08.825Z,38.40
2023-03-24T05:37:35.477Z,40.03
2023-03-24T05:40:01.937Z,36.55
2023-03-24T05:42:28.575Z,32.63
2023-03-24T05:44:55.042Z,29.95
2023-03-24T05:47:21.895Z,34.77
2023-03-24T05:49:48.746Z,34.92
2023-03-24T05:52:15.218Z,30.65
2023-03-24T05:54:42.385Z,35.88
2023-03-24T05:57:14.625Z,32.60
2023-03-24T05:59:41.146Z,35.87
2023-03-24T06:02:08.088Z,35.58
2023-03-24T06:04:35.189Z,35.45
2023-03-24T06:07:02.140Z,34.95
2023-03-24T06:09:30.899Z,36.28
2023-03-24T06:11:57.421Z,37.27
2023-03-24T06:14:24.175Z,32.20
2023-03-24T06:16:50.684Z,34.85
2023-03-24T06:19:18.107Z,34.05
2023-03-24T06:21:44.615Z,33.08
2023-03-24T06:24:11.160Z,39.63
2023-03-24T06:26:39.629Z,37.85
2023-03-24T06:29:06.577Z,36.13
2023-03-24T06:31:33.122Z,33.85
2023-03-24T06:33:59.734Z,37.90
2023-03-24T06:36:26.226Z,38.77
2023-03-24T06:38:53.848Z,34.78
2023-03-24T06:41:20.772Z,39.60
2023-03-24T06:43:47.254Z,41.17
2023-03-24T06:46:13.840Z,37.05
2023-03-24T06:48:40.392Z,39.50
2023-03-24T06:51:07.325Z,41.47
2023-03-24T06:53:33.863Z,40.97
2023-03-24T06:56:00.482Z,36.70
2023-03-24T06:58:26.933Z,35.30
2023-03-24T07:00:53.386Z,40.70
2023-03-24T07:03:19.899Z,38.25
2023-03-24T07:05:46.336Z,38.13
2023-03-24T07:10:42.293Z,41.72
2023-03-24T07:13:08.945Z,46.70
2023-03-24T07:15:35.797Z,35.28
2023-03-24T07:18:02.518Z,42.00
2023-03-24T07:20:29.161Z,34.47
2023-03-24T07:22:56.730Z,40.60
2023-03-24T07:25:23.762Z,25.17
2023-03-24T07:27:53.811Z,39.17
2023-03-24T07:30:24.344Z,43.53
2023-03-24T07:32:56.869Z,45.00
2023-03-24T07:35:23.356Z,41.20
2023-03-24T07:37:49.833Z,38.03
2023-03-24T07:40:16.586Z,34.63
2023-03-24T07:42:43.524Z,35.65
2023-03-24T07:45:11.658Z,36.65
2023-03-24T07:47:39.147Z,35.72
2023-03-24T07:50:07.256Z,37.07
2023-03-24T07:52:33.750Z,35.42
2023-03-24T07:55:00.332Z,43.75
2023-03-24T07:57:26.925Z,42.38
2023-03-24T07:59:53.381Z,42.45
2023-03-24T08:02:20.573Z,36.00
2023-03-24T08:04:50.188Z,46.22
2023-03-24T08:07:18.827Z,31.98
2023-03-24T08:09:45.449Z,40.72
2023-03-24T08:12:20.122Z,46.90
2023-03-24T08:14:47.678Z,38.70
2023-03-24T08:17:14.196Z,39.13
2023-03-24T08:19:56.288Z,46.72
2023-03-24T08:22:25.895Z,47.92
2023-03-24T08:24:52.478Z,36.35
2023-03-24T08:27:19.024Z,39.03
2023-03-24T08:29:45.570Z,44.83
2023-03-24T08:32:12.075Z,41.67
2023-03-24T08:34:38.534Z,39.85
2023-03-24T08:37:05.124Z,37.22
2023-03-24T08:39:31.634Z,39.13
2023-03-24T08:41:58.395Z,42.33
2023-03-24T08:44:24.995Z,39.83
2023-03-24T08:46:51.509Z,42.40
2023-03-24T08:49:18.084Z,36.05
2023-03-24T08:51:45.202Z,36.60
2023-03-24T08:54:11.686Z,33.25
2023-03-24T08:56:38.896Z,35.15
2023-03-24T08:59:05.774Z,36.20
2023-03-24T09:01:33.042Z,31.70
2023-03-24T09:03:59.672Z,36.93
2023-03-24T09:06:26.358Z,31.45
2023-03-24T09:08:54.030Z,34.28
2023-03-24T09:11:21.580Z,33.05
2023-03-24T09:13:48.989Z,37.28
2023-03-24T09:16:17.145Z,30.13
2023-03-24T09:18:43.826Z,27.30
2023-03-24T09:21:10.511Z,27.80
2023-03-24T09:23:37.166Z,29.83
2023-03-24T09:26:04.631Z,26.40
2023-03-24T09:28:31.386Z,33.33
2023-03-24T09:31:00.587Z,32.45
2023-03-24T09:33:27.859Z,34.53
2023-03-24T09:35:59.997Z,30.65
2023-03-24T09:38:27.999Z,34.63
2023-03-24T09:40:57.837Z,26.00
2023-03-24T09:43:49.785Z,32.70
2023-03-24T09:46:24.758Z,31.38
2023-03-24T09:48:55.428Z,34.22
2023-03-24T09:51:31.557Z,31.50
2023-03-24T09:54:36.506Z,32.17
2023-03-24T09:57:04.160Z,32.83
2023-03-24T09:59:30.596Z,35.05
2023-03-24T10:01:58.381Z,31.90
2023-03-24T10:04:27.262Z,32.75
2023-03-24T10:07:06.500Z,36.70
2023-03-24T10:09:35.165Z,37.78
2023-03-24T10:12:07.646Z,41.83
2023-03-24T10:14:52.329Z,36.38
2023-03-24T10:17:46.116Z,33.78
2023-03-24T10:20:18.607Z,29.43
2023-03-24T10:23:04.195Z,30.98
2023-03-24T10:26:09.956Z,24.63
2023-03-24T10:29:18.208Z,24.08
2023-03-24T10:31:50.328Z,24.23
2023-03-24T10:34:17.252Z,24.03
2023-03-24T10:36:44.709Z,23.48
2023-03-24T10:39:20.049Z,21.75
2023-03-24T10:41:49.984Z,20.48
2023-03-24T10:44:18.334Z,22.30
2023-03-24T10:46:55.144Z,23.00
2023-03-24T10:49:23.471Z,19.92
2023-03-24T10:51:52.404Z,23.08
2023-03-24T10:54:20.690Z,20.40
2023-03-24T10:56:57.430Z,21.38
2023-03-24T10:59:37.162Z,20.43
2023-03-24T11:02:09.419Z,19.05
2023-03-24T11:04:41.478Z,18.40
2023-03-24T11:07:14.964Z,19.55
2023-03-24T11:09:47.615Z,17.27
2023-03-24T11:12:31.135Z,16.50
2023-03-24T11:15:14.205Z,19.00
2023-03-24T11:17:56.045Z,15.65
2023-03-24T11:20:30.986Z,16.05
2023-03-24T11:23:01.666Z,15.45
2023-03-24T11:25:35.390Z,17.80
2023-03-24T11:28:14.619Z,17.70
2023-03-24T11:30:50.136Z,15.68
2023-03-24T11:33:34.890Z,15.93
2023-03-24T11:36:29.255Z,17.42
2023-03-24T11:39:10.408Z,15.00
2023-03-24T11:41:39.279Z,13.50
2023-03-24T11:44:17.743Z,11.30
2023-03-24T11:46:47.698Z,11.73
2023-03-24T11:49:18.508Z,8.77
2023-03-24T11:51:49.435Z,9.17
2023-03-24T11:54:19.606Z,8.25
2023-03-24T11:57:07.659Z,12.05
2023-03-24T11:59:42.183Z,9.90
2023-03-24T12:02:09.238Z,8.85
2023-03-24T12:04:46.313Z,7.97
2023-03-24T12:07:41.424Z,8.82
2023-03-24T12:10:29.828Z,9.55
2023-03-24T12:13:02.013Z,8.55
2023-03-24T12:15:42.508Z,9.70
2023-03-24T12:18:24.321Z,8.00
2023-03-24T12:21:08.893Z,6.03
2023-03-24T12:24:14.380Z,8.30
2023-03-24T12:26:41.103Z,7.13
2023-03-24T12:29:39.673Z,9.25
2023-03-24T12:32:31.542Z,10.60
2023-03-24T12:35:39.652Z,9.50
2023-03-24T12:38:27.755Z,9.60
2023-03-24T12:41:15.572Z,9.52
2023-03-24T12:43:54.693Z,10.05
2023-03-24T12:46:48.141Z,9.43
2023-03-24T12:49:28.027Z,9.18
2023-03-24T12:52:23.124Z,10.95
2023-03-24T12:54:57.571Z,6.53
2023-03-24T12:57:28.366Z,7.63
2023-03-24T13:00:04.210Z,7.63
2023-03-24T13:02:39.444Z,7.55
2023-03-24T13:05:16.168Z,6.97
2023-03-24T13:07:43.382Z,7.13
2023-03-24T13:10:23.097Z,7.13
2023-03-24T13:13:03.874Z,7.63
2023-03-24T13:15:35.240Z,8.13
2023-03-24T13:18:10.688Z,6.88
2023-03-24T13:20:51.963Z,5.97
2023-03-24T13:23:33.442Z,7.13
2023-03-24T13:26:12.000Z,6.37
2023-03-24T13:29:06.867Z,7.25
2023-03-24T13:31:59.132Z,5.13
2023-03-24T13:34:36.690Z,7.72
2023-03-24T13:37:06.909Z,7.15
2023-03-24T13:39:35.912Z,7.77
2023-03-24T13:42:03.944Z,7.75
2023-03-24T13:44:41.610Z,6.47
2023-03-24T13:47:18.309Z,7.57
2023-03-24T13:50:04.638Z,6.13
2023-03-24T13:52:37.051Z,6.77
2023-03-24T13:55:12.871Z,4.70
2023-03-24T13:57:51.580Z,4.43
2023-03-24T14:00:23.699Z,5.30
2023-03-24T14:02:55.343Z,4.93
2023-03-24T14:05:40.144Z,4.73
2023-03-24T14:08:06.647Z,4.88
2023-03-24T14:10:58.756Z,3.45
2023-03-24T14:13:37.593Z,4.10
2023-03-24T14:16:45.851Z,6.28
2023-03-24T14:19:26.827Z,3.73
2023-03-24T14:21:58.912Z,4.95
2023-03-24T14:24:29.690Z,2.83
2023-03-24T14:26:56.785Z,3.95
2023-03-24T14:29:42.689Z,3.25
2023-03-24T14:32:20.245Z,3.50
2023-03-24T14:34:58.226Z,3.63
2023-03-24T14:37:27.300Z,5.65
2023-03-24T14:39:56.067Z,4.07
2023-03-24T14:42:31.693Z,4.47
2023-03-24T14:45:31.372Z,5.77
2023-03-24T14:48:01.362Z,5.75
2023-03-24T14:50:28.881Z,5.07
2023-03-24T14:53:00.016Z,5.97
2023-03-24T14:55:27.807Z,4.95
2023-03-24T14:57:59.981Z,8.90
2023-03-24T15:00:39.255Z,5.03
2023-03-24T15:03:23.139Z,5.32
2023-03-24T15:05:50.219Z,4.97
2023-03-24T15:08:21.891Z,4.90
2023-03-24T15:10:55.914Z,5.50
2023-03-24T15:13:52.068Z,5.97
2023-03-24T15:16:33.550Z,7.28
2023-03-24T15:19:03.021Z,6.07
2023-03-24T15:21:33.332Z,7.35
2023-03-24T15:24:01.332Z,6.83
2023-03-24T15:26:30.738Z,5.85
2023-03-24T15:29:00.106Z,9.07
2023-03-24T15:31:27.277Z,5.15
2023-03-24T15:33:53.812Z,5.78
2023-03-24T15:36:23.018Z,7.40
2023-03-24T15:38:51.701Z,5.90
2023-03-24T15:41:22.106Z,10.60
2023-03-24T15:43:53.432Z,6.80
2023-03-24T15:46:25.891Z,4.55
2023-03-24T15:48:53.852Z,25.70
2023-03-24T15:51:40.818Z,7.55
2023-03-24T15:54:20.835Z,17.70
2023-03-24T15:57:13.602Z,14.55
2023-03-24T15:59:45.448Z,6.40
2023-03-24T16:02:20.537Z,9.40
2023-03-24T16:07:27.707Z,7.65
2023-03-24T16:09:59.182Z,9.27
2023-03-24T16:12:25.685Z,5.90
2023-03-24T16:14:52.191Z,5.07
2023-03-24T16:17:18.980Z,5.65
2023-03-24T16:19:45.431Z,8.32
2023-03-24T16:22:12.329Z,9.10
2023-03-24T16:24:38.803Z,7.47
2023-03-24T16:27:05.285Z,5.23
2023-03-24T16:29:31.785Z,6.13
2023-03-24T16:31:58.263Z,6.80
2023-03-24T16:34:24.842Z,7.80
2023-03-24T16:36:52.896Z,8.40
2023-03-24T16:39:22.553Z,7.93
2023-03-24T16:41:48.928Z,7.22
2023-03-24T16:44:15.298Z,8.85
2023-03-24T16:46:42.912Z,12.02
2023-03-24T16:49:13.016Z,7.82
2023-03-24T16:51:39.628Z,10.10
2023-03-24T16:54:06.836Z,7.80
2023-03-24T16:56:33.651Z,10.25
2023-03-24T16:59:00.289Z,10.05
2023-03-24T17:01:32.743Z,8.10
2023-03-24T17:04:00.872Z,8.07
2023-03-24T17:06:31.220Z,7.88
2023-03-24T17:08:58.724Z,8.23
2023-03-24T17:11:52.945Z,8.98
2023-03-24T17:14:19.998Z,6.88
2023-03-24T17:16:47.772Z,8.40
2023-03-24T17:19:17.154Z,8.88
2023-03-24T17:21:50.817Z,10.60
2023-03-24T17:24:17.652Z,6.85
2023-03-24T17:26:44.229Z,7.78
2023-03-24T17:29:12.806Z,8.13
2023-03-24T17:31:39.626Z,8.07
2023-03-24T17:34:20.681Z,8.50
2023-03-24T17:36:48.555Z,9.13
2023-03-24T17:39:17.154Z,7.97
2023-03-24T17:41:44.135Z,8.60
2023-03-24T17:44:10.749Z,8.50
2023-03-24T17:46:37.578Z,11.52
2023-03-24T17:49:04.100Z,8.73
2023-03-24T17:51:30.582Z,9.68
2023-03-24T17:53:58.030Z,9.87
2023-03-24T17:56:24.374Z,11.48
2023-03-24T17:58:50.859Z,9.88
2023-03-24T18:01:17.441Z,10.68
2023-03-24T18:03:44.304Z,9.88
2023-03-24T18:06:13.185Z,12.27
2023-03-24T18:08:40.521Z,11.05
2023-03-24T18:11:12.820Z,9.15
2023-03-24T18:13:41.181Z,11.55
2023-03-24T18:16:19.934Z,13.65
2023-03-24T18:18:48.413Z,10.70
2023-03-24T18:21:14.948Z,14.63
2023-03-24T18:23:41.488Z,13.18
2023-03-24T18:26:08.457Z,15.40
2023-03-24T18:28:36.544Z,13.88
2023-03-24T18:31:04.283Z,12.47
2023-03-24T18:33:30.856Z,15.45
2023-03-24T18:35:57.989Z,11.85
2023-03-24T18:38:25.123Z,10.98
2023-03-24T18:40:58.663Z,11.00
2023-03-24T18:43:26.119Z,8.67
2023-03-24T18:45:53.123Z,8.80
2023-03-24T18:48:20.062Z,9.18
2023-03-24T18:50:47.061Z,9.07
2023-03-24T18:53:13.747Z,10.45
2023-03-24T18:55:48.158Z,9.03
2023-03-24T18:58:15.225Z,9.50
2023-03-24T19:00:48.591Z,10.60
2023-03-24T19:03:15.477Z,9.77
2023-03-24T19:05:42.205Z,8.35
2023-03-24T19:08:08.729Z,11.07
2023-03-24T19:10:37.144Z,8.35
2023-03-24T19:13:04.153Z,7.25
2023-03-24T19:15:32.073Z,8.35
2023-03-24T19:18:00.516Z,9.02
2023-03-24T19:20:28.972Z,10.00
2023-03-24T19:22:55.498Z,8.20
2023-03-24T19:25:22.706Z,7.90
2023-03-24T19:27:49.607Z,9.18
2023-03-24T19:30:16.109Z,9.70
2023-03-24T19:32:42.663Z,10.40
2023-03-24T19:35:09.547Z,10.25
2023-03-24T19:37:36.032Z,11.05
2023-03-24T19:40:02.883Z,7.20
2023-03-24T19:42:30.520Z,16.05
2023-03-24T19:44:58.632Z,12.67
2023-03-24T19:47:25.225Z,10.13
2023-03-24T19:49:51.674Z,14.02
2023-03-24T19:52:18.136Z,13.52
2023-03-24T19:54:45.321Z,20.00
2023-03-24T19:57:11.892Z,20.77
2023-03-24T19:59:38.375Z,21.33
2023-03-24T20:02:04.974Z,20.92
2023-03-24T20:04:31.546Z,20.70
2023-03-24T20:06:58.027Z,10.40
2023-03-24T20:09:24.616Z,20.00
2023-03-24T20:11:52.221Z,17.95
2023-03-24T20:14:19.848Z,15.32
2023-03-24T20:16:46.486Z,19.58
2023-03-24T20:19:12.968Z,13.75
2023-03-24T20:21:39.403Z,12.73
2023-03-24T20:24:06.180Z,13.75
2023-03-24T20:26:32.666Z,14.25
2023-03-24T20:28:59.164Z,13.85
2023-03-24T20:31:25.871Z,8.50
2023-03-24T20:33:52.387Z,19.20
2023-03-24T20:36:19.008Z,14.95
2023-03-24T20:38:45.621Z,14.75
2023-03-24T20:41:12.099Z,8.18
2023-03-24T20:43:38.604Z,12.35
2023-03-24T20:46:07.100Z,13.00
2023-03-24T20:48:34.573Z,13.60
2023-03-24T20:51:01.387Z,16.13
2023-03-24T20:53:28.010Z,18.02
2023-03-24T20:56:03.207Z,14.40
2023-03-24T20:58:30.620Z,18.53
2023-03-24T21:00:57.444Z,16.40
2023-03-24T21:03:24.840Z,15.55
2023-03-24T21:05:52.462Z,11.48
2023-03-24T21:08:19.125Z,15.77
2023-03-24T21:10:45.614Z,11.33
2023-03-24T21:13:12.263Z,15.65
2023-03-24T21:15:44.223Z,17.25
2023-03-24T21:18:10.911Z,16.67
2023-03-24T21:20:38.167Z,14.25
2023-03-24T21:23:04.660Z,17.97
2023-03-24T21:25:32.521Z,10.15
2023-03-24T21:27:59.214Z,15.48
2023-03-24T21:30:27.553Z,15.48
2023-03-24T21:32:56.405Z,9.52
2023-03-24T21:35:23.856Z,6.70
2023-03-24T21:37:50.452Z,8.70
2023-03-24T21:40:19.658Z,4.28
2023-03-24T21:42:47.092Z,7.03
2023-03-24T21:45:16.522Z,5.93
2023-03-24T21:47:43.784Z,11.63
2023-03-24T21:50:10.499Z,7.32
2023-03-24T21:52:37.061Z,10.98
2023-03-24T21:55:03.637Z,10.02
2023-03-24T21:57:30.177Z,6.22
2023-03-24T21:59:56.650Z,9.47
2023-03-24T22:02:24.598Z,10.35
2023-03-24T22:04:51.289Z,12.05
2023-03-24T22:07:17.757Z,9.18
2023-03-24T22:09:45.129Z,12.30
2023-03-24T22:12:11.714Z,12.17
2023-03-24T22:14:39.028Z,13.95
2023-03-24T22:17:05.599Z,14.00
2023-03-24T22:19:32.147Z,14.95
2023-03-24T22:21:58.653Z,11.82
2023-03-24T22:24:25.154Z,15.98
2023-03-24T22:26:51.733Z,15.20
2023-03-24T22:29:18.673Z,16.97
2023-03-24T22:31:45.211Z,23.38
2023-03-24T22:34:11.698Z,18.88
2023-03-24T22:36:38.247Z,22.05
2023-03-24T22:39:04.727Z,22.25
2023-03-24T22:41:31.237Z,20.67
2023-03-24T22:43:57.816Z,19.60
2023-03-24T22:46:24.504Z,18.88
2023-03-24T22:48:51.225Z,18.00
2023-03-24T22:51:17.729Z,18.83
2023-03-24T22:53:44.571Z,16.47
2023-03-24T22:56:11.286Z,28.55
2023-03-24T22:58:38.172Z,27.88
2023-03-24T23:01:04.837Z,37.17
2023-03-24T23:03:31.339Z,22.25
2023-03-24T23:06:00.328Z,27.87
2023-03-24T23:08:26.815Z,30.20
2023-03-24T23:10:53.288Z,25.13
2023-03-24T23:13:20.660Z,28.08
2023-03-24T23:15:49.194Z,23.73
2023-03-24T23:18:16.548Z,26.47
2023-03-24T23:20:43.087Z,23.13
2023-03-24T23:23:10.185Z,23.48
2023-03-24T23:25:44.550Z,27.63
2023-03-24T23:28:12.081Z,18.02
2023-03-24T23:30:39.232Z,19.53
2023-03-24T23:33:05.936Z,15.15
2023-03-24T23:35:33.003Z,23.55
2023-03-24T23:37:59.538Z,20.38
2023-03-24T23:40:26.082Z,18.75
2023-03-24T23:42:52.547Z,22.70
2023-03-24T23:45:20.421Z,29.45
2023-03-24T23:47:50.235Z,32.67
2023-03-24T23:50:18.391Z,16.73
2023-03-24T23:52:45.125Z,27.05
2023-03-24T23:55:13.534Z,28.93
2023-03-24T23:57:41.206Z,25.17
